Time;durP1;ratioP1;P1;durP2;ratioP2;P2;SDS_P1;SDS_P2;PMS_P1;PMS_P2;Temp;Humidity;BMP_temperature;BMP_pressure;BME280_temperature;BME280_humidity;BME280_pressure;Samples;Min_cycle;Max_cycle;Signal;HPM_P1;HPM_P2
2022/03/20 00:00:27;;;;;;;21.60;9.95;;;;;;;-3.74;51.09;102522.98;1698984;84;21250;-78
2022/03/20 00:03:33;;;;;;;17.82;8.30;;;;;;;-3.76;51.08;102519.47;1698537;84;21824;-78
2022/03/20 00:06:39;;;;;;;18.00;9.00;;;;;;;-3.79;51.25;102508.81;1699798;84;21216;-78
2022/03/20 00:09:46;;;;;;;19.80;9.25;;;;;;;-3.82;51.30;102518.23;1699513;84;21275;-78
2022/03/20 00:12:53;;;;;;;20.17;8.98;;;;;;;-3.86;51.14;102523.66;1699394;84;21287;-79
2022/03/20 00:16:01;;;;;;;19.95;8.53;;;;;;;-3.90;50.91;102519.28;1698512;84;21200;-79
2022/03/20 00:19:02;;;;;;;23.20;9.58;;;;;;;-3.96;50.85;102515.36;1699868;84;21208;-79
2022/03/20 00:22:09;;;;;;;22.05;9.15;;;;;;;-4.02;50.99;102510.61;1699842;84;21208;-79
2022/03/20 00:25:14;;;;;;;14.87;8.03;;;;;;;-4.05;51.16;102504.84;1699857;84;21227;-79
2022/03/20 00:28:24;;;;;;;21.15;9.28;;;;;;;-4.09;51.18;102491.14;1699201;84;21272;-79
2022/03/20 00:31:32;;;;;;;18.82;9.03;;;;;;;-4.13;51.21;102484.09;1698744;84;21790;-79
2022/03/20 00:34:38;;;;;;;21.87;8.85;;;;;;;-4.18;51.39;102485.97;1699919;84;21244;-79
2022/03/20 00:37:44;;;;;;;17.82;8.80;;;;;;;-4.22;51.61;102481.13;1699907;84;21231;-78
2022/03/20 00:40:51;;;;;;;20.00;8.25;;;;;;;-4.23;51.70;102478.05;1699050;84;21267;-78
2022/03/20 00:43:59;;;;;;;15.58;7.83;;;;;;;-4.23;51.87;102469.15;1698451;84;21204;-79
2022/03/20 00:47:03;;;;;;;21.82;9.38;;;;;;;-4.24;52.01;102479.38;1699801;84;21196;-78
2022/03/20 00:50:09;;;;;;;16.27;7.80;;;;;;;-4.26;52.13;102469.19;1699591;84;21216;-78
2022/03/20 00:53:16;;;;;;;16.32;8.80;;;;;;;-4.25;52.40;102473.63;1699896;84;21211;-78
2022/03/20 00:56:22;;;;;;;22.35;9.68;;;;;;;-4.27;52.47;102470.99;1698507;84;21208;-78
2022/03/20 00:59:28;;;;;;;22.02;9.20;;;;;;;-4.29;52.57;102467.91;1699482;84;21215;-78
2022/03/20 01:02:33;;;;;;;18.40;8.85;;;;;;;-4.33;52.64;102467.53;1699221;84;21239;-78
2022/03/20 01:05:40;;;;;;;18.57;9.60;;;;;;;-4.35;52.79;102462.69;1698516;84;21212;-78
2022/03/20 01:08:47;;;;;;;20.62;8.68;;;;;;;-4.40;52.96;102455.63;1699818;84;21224;-78
2022/03/20 01:11:53;;;;;;;15.60;8.35;;;;;;;-4.43;53.02;102453.47;1698807;84;21239;-78
2022/03/20 01:14:53;;;;;;;20.40;9.83;;;;;;;-4.47;53.16;102455.34;1699107;84;21223;-78
2022/03/20 01:18:00;;;;;;;17.87;8.75;;;;;;;-4.51;53.36;102453.63;1699931;84;21829;-77
2022/03/20 01:21:07;;;;;;;25.88;9.73;;;;;;;-4.58;53.36;102459.97;1698843;84;21204;-77
2022/03/20 01:24:13;;;;;;;18.67;8.58;;;;;;;-4.63;53.57;102457.38;1700444;84;21188;-78
2022/03/20 01:27:20;;;;;;;21.52;10.50;;;;;;;-4.67;53.78;102454.80;1700538;84;21200;-78
2022/03/20 01:30:25;;;;;;;16.52;8.55;;;;;;;-4.75;53.83;102451.36;1699106;84;21790;-78
2022/03/20 01:33:33;;;;;;;21.05;8.68;;;;;;;-4.78;53.85;102454.11;1700179;84;21204;-78
2022/03/20 01:36:38;;;;;;;24.30;10.35;;;;;;;-4.83;53.83;102449.30;1699751;84;21184;-78
2022/03/20 01:39:44;;;;;;;21.73;10.32;;;;;;;-4.87;53.94;102459.14;1699954;84;21200;-78
2022/03/20 01:42:49;;;;;;;18.52;8.93;;;;;;;-4.89;54.00;102464.52;1699869;84;21196;-78
2022/03/20 01:45:54;;;;;;;18.87;9.18;;;;;;;-4.91;54.11;102458.31;1697012;84;21997;-78
2022/03/20 01:48:55;;;;;;;23.50;9.75;;;;;;;-4.94;54.17;102458.38;1690069;85;22217;-78
2022/03/20 01:55:13;;;;;;;20.25;9.78;;;;;;;-5.04;54.32;102462.08;1678321;85;21811;-78
2022/03/20 01:58:22;;;;;;;18.67;10.08;;;;;;;-5.08;54.46;102464.81;1669756;85;21205;-78
2022/03/20 02:01:28;;;;;;;20.50;8.55;;;;;;;-5.15;54.54;102467.59;1693812;84;21224;-78
2022/03/20 02:04:35;;;;;;;19.75;10.18;;;;;;;-5.20;54.67;102478.80;1690291;85;21794;-78
2022/03/20 02:07:42;;;;;;;20.68;9.10;;;;;;;-5.26;54.90;102480.69;1690246;85;21205;-78
2022/03/20 02:10:47;;;;;;;20.10;9.15;;;;;;;-5.30;55.20;102488.30;1690259;85;21204;-79
2022/03/20 02:13:53;;;;;;;15.53;7.80;;;;;;;-5.35;55.46;102491.48;1676447;85;21823;-78
2022/03/20 02:17:00;;;;;;;19.62;9.60;;;;;;;-5.41;55.77;102486.67;1690151;85;21184;-78
2022/03/20 02:20:02;;;;;;;21.12;8.48;;;;;;;-5.43;55.91;102487.13;1690434;85;21762;-78
2022/03/20 02:22:55;;;;;;;20.52;9.93;;;;;;;-5.43;56.23;102484.45;1689367;85;21200;-78
2022/03/20 02:26:00;;;;;;;23.02;10.70;;;;;;;-5.42;56.47;102491.55;1690218;85;21204;-79
2022/03/20 02:29:08;;;;;;;17.37;8.90;;;;;;;-5.41;56.67;102488.42;1688973;85;21255;-78
2022/03/20 02:32:14;;;;;;;18.12;8.68;;;;;;;-5.44;56.88;102485.37;1689080;85;21231;-78
2022/03/20 02:35:22;;;;;;;17.90;9.63;;;;;;;-5.49;57.05;102484.55;1690282;85;21192;-78
2022/03/20 02:38:28;;;;;;;18.75;9.95;;;;;;;-5.52;57.26;102480.58;1690316;85;21739;-78
2022/03/20 02:41:34;;;;;;;22.98;10.63;;;;;;;-5.51;57.33;102474.80;1690212;85;21259;-78
2022/03/20 02:45:16;;;;;;;23.55;10.90;;;;;;;-5.52;57.38;102476.58;1689057;85;21260;-77
2022/03/20 02:48:23;;;;;;;19.50;9.53;;;;;;;-5.52;57.48;102477.91;1687391;84;21220;-78
2022/03/20 02:51:28;;;;;;;20.35;10.35;;;;;;;-5.53;57.57;102482.83;1687163;85;21208;-78
2022/03/20 02:54:34;;;;;;;19.37;9.95;;;;;;;-5.56;57.66;102468.19;1687374;85;21724;-78
2022/03/20 02:57:40;;;;;;;30.35;10.43;;;;;;;-5.59;57.88;102468.70;1719513;83;21791;-78
2022/03/20 03:00:48;;;;;;;25.40;10.98;;;;;;;-5.62;58.05;102464.28;1719199;83;21282;-78
2022/03/20 03:03:55;;;;;;;16.12;9.63;;;;;;;-5.66;58.20;102469.22;1719491;83;21204;-78
2022/03/20 03:07:02;;;;;;;25.15;11.63;;;;;;;-5.72;58.39;102474.19;1718454;83;21223;-76
2022/03/20 03:13:36;;;;;;;22.17;10.03;;;;;;;-5.80;58.66;102481.39;1686121;85;21212;-78
2022/03/20 03:16:41;;;;;;;17.00;7.85;;;;;;;-5.86;58.84;102477.48;1686791;85;21228;-78
2022/03/20 03:19:48;;;;;;;21.73;10.38;;;;;;;-5.92;59.10;102475.81;1687346;85;21201;-78
2022/03/20 03:22:54;;;;;;;22.10;10.08;;;;;;;-5.99;59.34;102466.11;1718882;83;21195;-78
2022/03/20 03:26:01;;;;;;;18.67;10.75;;;;;;;-6.02;59.57;102459.51;1719496;83;21208;-78
2022/03/20 03:29:00;;;;;;;30.08;12.70;;;;;;;-6.06;59.69;102460.45;1719646;83;21184;-78
2022/03/20 03:31:53;;;;;;;20.52;10.25;;;;;;;-6.08;59.91;102468.89;1718625;83;21231;-78
2022/03/20 03:38:04;;;;;;;26.85;11.68;;;;;;;-6.15;60.34;102475.20;1718372;83;21216;-78
2022/03/20 03:41:09;;;;;;;18.42;8.93;;;;;;;-6.17;60.43;102474.31;1719538;83;21184;-78
2022/03/20 03:44:15;;;;;;;25.20;11.00;;;;;;;-6.19;60.43;102465.02;1685992;85;21727;-78
2022/03/20 03:47:21;;;;;;;21.60;10.65;;;;;;;-6.21;60.48;102462.84;1718525;83;21780;-78
2022/03/20 03:50:26;;;;;;;21.75;10.50;;;;;;;-6.25;60.62;102459.77;1718157;83;21247;-77
2022/03/20 03:53:32;;;;;;;24.10;11.35;;;;;;;-6.31;60.80;102461.60;1687787;85;21581;-78
2022/03/20 03:56:38;;;;;;;25.35;10.80;;;;;;;-6.36;61.08;102460.31;1687160;85;21252;-77
2022/03/20 03:59:44;;;;;;;24.07;10.53;;;;;;;-6.40;61.19;102459.03;1687282;85;21169;-78
2022/03/20 04:02:50;;;;;;;19.55;10.48;;;;;;;-6.38;61.32;102466.58;1686128;85;21216;-78
2022/03/20 04:05:56;;;;;;;22.05;9.90;;;;;;;-6.37;61.37;102470.55;1687339;85;21240;-78
2022/03/20 04:08:56;;;;;;;18.30;9.00;;;;;;;-6.33;61.35;102463.41;1687406;85;21248;-79
2022/03/20 04:12:02;;;;;;;20.82;9.65;;;;;;;-6.29;61.27;102467.81;1687282;85;21299;-78
2022/03/20 04:15:08;;;;;;;20.75;10.60;;;;;;;-6.27;61.32;102458.01;1719502;83;21730;-78
2022/03/20 04:18:08;;;;;;;19.57;12.07;;;;;;;-6.26;61.53;102458.44;1718304;83;21243;-78
2022/03/20 04:21:01;;;;;;;21.68;10.18;;;;;;;-6.20;61.76;102456.60;1687307;85;21201;-78
2022/03/20 04:23:49;;;;;;;19.87;10.10;;;;;;;-6.10;61.86;102464.04;1687022;85;21235;-78
2022/03/20 04:26:43;;;;;;;21.95;10.88;;;;;;;-6.01;61.83;102465.72;1687232;85;21200;-78
2022/03/20 04:29:50;;;;;;;16.75;9.85;;;;;;;-5.92;61.77;102470.94;1685964;85;21196;-78
2022/03/20 04:32:58;;;;;;;22.93;9.80;;;;;;;-5.85;61.60;102469.91;1718736;83;21232;-78
2022/03/20 04:36:08;;;;;;;16.02;8.50;;;;;;;-5.80;61.65;102469.40;1719566;83;21248;-78
2022/03/20 04:39:14;;;;;;;20.70;9.98;;;;;;;-5.73;61.55;102477.77;1687256;85;22537;-78
2022/03/20 04:42:20;;;;;;;18.40;9.20;;;;;;;-5.60;61.31;102468.25;1685880;85;21244;-78
2022/03/20 04:45:27;;;;;;;22.58;9.95;;;;;;;-5.48;61.00;102462.30;1687216;85;21196;-79
2022/03/20 04:58:35;;;;;;;26.45;8.75;;;;;;;-4.84;59.42;102470.25;1688008;85;21204;-78
2022/03/20 05:01:41;;;;;;;17.02;8.40;;;;;;;-4.68;58.28;102473.06;1687890;85;21268;-78
2022/03/20 05:04:47;;;;;;;17.52;9.40;;;;;;;-4.52;56.94;102479.89;1686670;85;21327;-79
2022/03/20 05:07:46;;;;;;;17.35;8.08;;;;;;;-4.33;55.35;102492.91;1686959;85;21208;-79
2022/03/20 05:14:06;;;;;;;16.87;8.35;;;;;;;-4.10;53.87;102488.02;1687741;85;21272;-80
2022/03/20 05:17:16;;;;;;;21.00;9.28;;;;;;;-4.00;53.82;102474.92;1688031;85;21216;-77
2022/03/20 05:20:23;;;;;;;;;;;;;;;-3.88;53.56;102477.33;1689239;84;21201;-78
2022/03/20 05:23:29;;;;;;;16.02;8.63;;;;;;;-3.74;53.10;102479.72;1688084;85;20207;-78
2022/03/20 05:26:34;;;;;;;15.20;8.58;;;;;;;-3.65;52.28;102486.67;1688044;85;21522;-78
2022/03/20 05:29:40;;;;;;;13.62;7.35;;;;;;;-3.59;51.79;102491.89;1688029;85;21204;-78
2022/03/20 05:32:48;;;;;;;13.38;7.20;;;;;;;-3.52;52.17;102493.99;1688106;85;21692;-78
2022/03/20 05:35:53;;;;;;;15.93;7.90;;;;;;;-3.40;51.71;102500.39;1686631;85;21272;-78
2022/03/20 05:39:00;;;;;;;13.25;8.43;;;;;;;-3.31;51.55;102501.53;1688035;85;21204;-77
2022/03/20 05:42:06;;;;;;;16.65;9.03;;;;;;;-3.21;50.92;102494.17;1687975;85;21196;-78
2022/03/20 05:45:06;;;;;;;17.98;8.13;;;;;;;-3.12;50.90;102493.96;1687232;85;21780;-78
2022/03/20 05:47:59;;;;;;;13.75;8.15;;;;;;;-2.96;50.18;102495.84;1686742;85;21897;-78
2022/03/20 05:50:53;;;;;;;13.45;7.62;;;;;;;-2.88;49.16;102494.71;1692083;84;21802;-78
2022/03/20 05:53:59;;;;;;;14.03;7.60;;;;;;;-2.77;48.52;102494.47;1699966;84;21208;-78
2022/03/20 06:00:30;;;;;;;13.28;6.97;;;;;;;-2.51;46.88;102501.84;1699992;84;21196;-79
2022/03/20 06:03:37;;;;;;;13.18;7.87;;;;;;;-2.37;46.44;102501.48;1698879;84;21223;-78
2022/03/20 06:06:43;;;;;;;12.82;6.85;;;;;;;-2.23;45.81;102506.02;1699911;84;21196;-79
2022/03/20 06:09:48;;;;;;;16.07;7.53;;;;;;;-2.06;45.19;102505.58;1699887;84;21830;-78
2022/03/20 06:12:53;;;;;;;13.98;7.05;;;;;;;-1.94;43.16;102509.23;1700248;84;21810;-78
2022/03/20 06:15:59;;;;;;;12.63;6.42;;;;;;;-1.85;43.03;102508.98;1699222;84;21836;-78
2022/03/20 06:19:08;;;;;;;22.27;6.87;;;;;;;-1.70;42.02;102509.47;1700009;84;21243;-78
2022/03/20 06:22:15;;;;;;;13.58;6.90;;;;;;;-1.59;41.52;102504.69;1700529;84;21215;-78
2022/03/20 06:25:20;;;;;;;11.15;6.15;;;;;;;-1.43;40.41;102504.64;1699723;84;21199;-78
2022/03/20 06:28:27;;;;;;;9.60;5.75;;;;;;;-1.34;39.33;102512.41;1700080;84;21208;-78
2022/03/20 06:31:35;;;;;;;11.12;5.92;;;;;;;-1.25;38.92;102511.73;1699987;84;21406;-78
2022/03/20 06:34:42;;;;;;;12.93;6.33;;;;;;;-1.16;38.66;102508.30;1699430;84;21774;-78
2022/03/20 06:37:55;;;;;;;9.40;5.70;;;;;;;-1.06;38.39;102499.48;1700274;84;21203;-78
2022/03/20 06:41:02;;;;;;;11.70;6.25;;;;;;;-0.95;37.86;102504.50;1699200;84;21215;-79
2022/03/20 06:44:09;;;;;;;13.15;6.37;;;;;;;-0.83;36.55;102496.94;1700444;84;21745;-79
2022/03/20 06:47:16;;;;;;;16.48;5.95;;;;;;;-0.73;36.19;102497.98;1700435;84;21192;-78
2022/03/20 06:50:22;;;;;;;13.90;5.85;;;;;;;-0.63;36.32;102495.39;1699601;84;21259;-78
2022/03/20 06:53:28;;;;;;;14.43;5.95;;;;;;;-0.50;36.73;102485.12;1687291;84;21535;-78
2022/03/20 06:56:35;;;;;;;11.00;5.25;;;;;;;-0.37;35.07;102487.33;1718962;83;21951;-79
2022/03/20 06:59:40;;;;;;;14.70;5.75;;;;;;;-0.24;35.57;102490.92;1687511;85;21208;-79
2022/03/20 07:02:50;;;;;;;11.38;5.33;;;;;;;-0.10;33.82;102487.27;1686730;85;21231;-79
2022/03/20 07:05:57;;;;;;;14.98;5.45;;;;;;;-0.03;34.10;102492.86;1718497;83;21218;-78
2022/03/20 07:09:04;;;;;;;9.68;6.42;;;;;;;0.07;33.59;102496.09;1719885;83;21189;-78
2022/03/20 07:12:09;;;;;;;11.15;6.42;;;;;;;0.14;34.10;102485.06;1719695;83;21227;-79
2022/03/20 07:15:15;;;;;;;11.08;6.78;;;;;;;0.30;34.85;102485.83;1718128;83;21207;-79
2022/03/20 07:18:23;;;;;;;11.93;6.90;;;;;;;0.45;34.25;102484.77;1719417;83;21185;-78
2022/03/20 07:21:28;;;;;;;10.82;6.08;;;;;;;0.61;34.67;102482.83;1718232;83;21286;-77
2022/03/20 07:24:35;;;;;;;12.18;5.90;;;;;;;0.72;33.82;102477.45;1687235;85;21200;-77
2022/03/20 07:31:04;;;;;;;13.85;5.97;;;;;;;0.75;34.41;102459.83;1687292;85;21200;-77
2022/03/20 07:34:13;;;;;;;12.82;6.87;;;;;;;0.93;34.08;102464.92;1687192;85;21295;-78
2022/03/20 07:37:23;;;;;;;11.50;6.25;;;;;;;0.99;33.44;102474.61;1686197;85;21239;-78
2022/03/20 07:40:31;;;;;;;14.60;7.00;;;;;;;0.98;33.05;102472.83;1687267;85;21747;-77
2022/03/20 07:43:37;;;;;;;13.32;6.42;;;;;;;0.99;33.19;102463.35;1685974;85;21208;-78
2022/03/20 07:46:43;;;;;;;13.62;6.12;;;;;;;1.10;33.14;102475.03;1686602;85;21208;-77
2022/03/20 07:49:50;;;;;;;13.50;5.90;;;;;;;1.13;32.21;102477.61;1687312;85;21240;-78
2022/03/20 07:52:59;;;;;;;9.55;5.62;;;;;;;1.11;31.55;102475.91;1719283;83;21253;-77
2022/03/20 07:56:05;;;;;;;9.73;4.97;;;;;;;1.10;31.81;102479.08;1719186;83;21934;-78
2022/03/20 07:59:16;;;;;;;10.90;6.25;;;;;;;1.15;31.82;102474.37;1719203;83;21259;-78
2022/03/20 08:02:21;;;;;;;7.10;4.58;;;;;;;1.28;32.13;102472.93;1686622;85;21406;-79
2022/03/20 08:05:28;;;;;;;12.53;5.87;;;;;;;1.41;30.88;102481.83;1687049;85;21244;-79
2022/03/20 08:08:34;;;;;;;13.48;6.28;;;;;;;1.52;30.48;102478.23;1687123;85;21208;-78
2022/03/20 08:11:39;;;;;;;10.08;6.03;;;;;;;1.55;30.78;102478.08;1687531;85;21244;-79
2022/03/20 08:14:45;;;;;;;20.10;7.47;;;;;;;1.65;31.33;102479.47;1719670;83;21918;-78
2022/03/20 08:17:53;;;;;;;11.15;6.42;;;;;;;1.75;31.31;102472.72;1717920;83;21786;-78
2022/03/20 08:21:00;;;;;;;12.58;7.40;;;;;;;1.77;31.07;102468.13;1686977;85;21255;-78
2022/03/20 08:24:06;;;;;;;9.60;6.05;;;;;;;1.77;30.28;102470.81;1687282;85;21204;-78
2022/03/20 08:27:12;;;;;;;12.10;6.80;;;;;;;1.75;30.42;102463.28;1686889;85;21252;-79
2022/03/20 08:30:20;;;;;;;11.83;6.20;;;;;;;1.83;30.25;102466.09;1687262;85;21181;-78
2022/03/20 08:33:27;;;;;;;10.48;5.95;;;;;;;1.85;29.91;102457.48;1687245;85;21192;-78
2022/03/20 08:36:34;;;;;;;13.65;5.70;;;;;;;1.85;29.64;102456.13;1719022;83;21231;-78
2022/03/20 08:39:39;;;;;;;8.25;5.08;;;;;;;1.89;29.48;102459.97;1719438;83;21203;-78
2022/03/20 08:42:47;;;;;;;10.18;5.80;;;;;;;1.89;29.12;102451.00;1719515;83;21194;-77
2022/03/20 08:45:53;;;;;;;9.75;5.62;;;;;;;1.90;29.64;102456.32;1719539;83;21204;-78
2022/03/20 08:49:03;;;;;;;8.20;5.70;;;;;;;1.98;29.41;102448.77;1719704;83;21205;-77
2022/03/20 08:52:08;;;;;;;11.12;5.37;;;;;;;2.04;28.82;102452.53;1686668;85;21220;-79
2022/03/20 08:55:14;;;;;;;8.38;5.35;;;;;;;2.04;28.28;102451.66;1695212;83;22582;-77
2022/03/20 08:58:20;;;;;;;10.13;5.00;;;;;;;2.03;28.13;102453.48;1699031;84;21328;-78
2022/03/20 09:01:25;;;;;;;9.33;4.90;;;;;;;2.01;27.91;102455.36;1699901;84;21247;-78
2022/03/20 09:04:32;;;;;;;9.73;5.47;;;;;;;2.02;28.11;102448.13;1699933;84;21747;-78
2022/03/20 09:07:40;;;;;;;6.80;4.25;;;;;;;2.12;29.19;102449.50;1699054;84;21854;-78
2022/03/20 09:10:45;;;;;;;7.85;4.40;;;;;;;2.37;28.69;102449.23;1699826;84;21204;-77
2022/03/20 09:13:52;;;;;;;8.10;3.70;;;;;;;2.56;27.52;102434.38;1700091;84;21203;-78
2022/03/20 09:20:22;;;;;;;6.80;4.05;;;;;;;2.69;25.98;102432.85;1698657;84;21275;-78
2022/03/20 09:23:28;;;;;;;7.50;4.12;;;;;;;2.69;26.29;102436.03;1699530;84;21271;-77
2022/03/20 09:26:34;;;;;;;9.70;3.80;;;;;;;2.61;26.41;102432.33;1699933;84;21211;-78
2022/03/20 09:29:40;;;;;;;7.05;4.17;;;;;;;2.53;26.32;102432.69;1699920;84;21212;-78
2022/03/20 09:32:46;;;;;;;6.87;3.37;;;;;;;2.48;26.21;102427.11;1698641;84;21207;-79
2022/03/20 09:35:52;;;;;;;5.30;3.33;;;;;;;2.40;25.69;102442.79;1698584;84;21207;-78
2022/03/20 09:38:51;;;;;;;6.25;3.65;;;;;;;2.37;25.31;102442.48;1674185;84;21885;-78
2022/03/20 09:41:57;;;;;;;11.97;3.70;;;;;;;2.43;25.56;102433.20;1698649;84;21724;-79
2022/03/20 09:45:02;;;;;;;6.20;3.40;;;;;;;2.53;25.62;102439.92;1699783;84;21256;-79
2022/03/20 09:48:08;;;;;;;6.85;3.62;;;;;;;2.58;25.83;102445.98;1699503;84;21239;-79
2022/03/20 09:51:15;;;;;;;5.35;3.15;;;;;;;2.66;25.67;102437.52;1698762;84;21208;-79
2022/03/20 09:54:20;;;;;;;6.03;3.30;;;;;;;2.76;24.97;102438.34;1698637;84;21231;-79
2022/03/20 09:57:25;;;;;;;10.03;3.65;;;;;;;2.90;25.43;102428.69;1693211;85;21231;-77
2022/03/20 10:00:32;;;;;;;6.90;3.85;;;;;;;3.05;24.75;102431.50;1671832;86;21211;-78
2022/03/20 10:03:39;;;;;;;6.65;3.83;;;;;;;3.14;24.65;102415.30;1693141;85;21779;-78
2022/03/20 10:06:46;;;;;;;7.45;3.77;;;;;;;3.22;24.35;102417.15;1700028;84;21675;-77
2022/03/20 10:09:55;;;;;;;5.50;3.27;;;;;;;3.20;24.48;102413.66;1698640;84;21208;-78
2022/03/20 10:13:05;;;;;;;7.12;4.28;;;;;;;3.27;24.40;102412.86;1686811;84;21192;-77
2022/03/20 10:16:25;;;;;;;8.33;3.37;;;;;;;3.31;24.85;102395.52;1698717;84;21215;-78
2022/03/20 10:19:32;;;;;;;;;;;;;;;3.43;24.49;102400.77;1701272;84;21215;-77
2022/03/20 10:22:38;;;;;;;10.70;3.83;;;;;;;3.55;24.34;102397.44;1699913;84;20247;-78
2022/03/20 10:25:47;;;;;;;7.75;3.80;;;;;;;3.65;24.71;102386.52;1686433;84;21751;-79
2022/03/20 10:28:57;;;;;;;7.22;3.83;;;;;;;3.72;24.18;102390.66;1685922;84;21207;-78
2022/03/20 10:32:04;;;;;;;9.35;4.05;;;;;;;3.78;24.89;102378.63;1700115;84;21199;-78
2022/03/20 10:35:13;;;;;;;9.43;4.53;;;;;;;3.88;24.31;102368.17;1700136;84;21742;-78
2022/03/20 10:38:18;;;;;;;10.68;3.95;;;;;;;3.94;24.74;102380.02;1699850;84;21232;-78
2022/03/20 10:41:38;;;;;;;7.33;3.87;;;;;;;3.97;24.04;102369.03;1699994;84;21711;-78
2022/03/20 10:44:44;;;;;;;;;;;;;;;4.01;24.69;102355.23;1701911;84;21204;-79
2022/03/20 10:47:50;;;;;;;7.25;3.65;;;;;;;4.11;24.53;102369.15;1699848;84;20287;-78
2022/03/20 10:50:58;;;;;;;6.67;3.52;;;;;;;4.22;24.00;102369.90;1699931;84;21193;-78
2022/03/20 10:54:05;;;;;;;14.90;3.60;;;;;;;4.28;24.08;102355.55;1699423;84;21834;-78
2022/03/20 10:57:12;;;;;;;6.78;4.08;;;;;;;4.30;24.13;102370.35;1690263;83;21240;-79
2022/03/20 11:00:19;;;;;;;6.00;3.42;;;;;;;4.31;24.05;102340.94;1683645;85;21283;-79
2022/03/20 11:03:25;;;;;;;6.70;3.62;;;;;;;4.35;24.36;102352.88;1683819;85;21248;-79
2022/03/20 11:06:31;;;;;;;6.65;3.50;;;;;;;4.44;24.06;102357.39;1685031;85;21819;-78
2022/03/20 11:09:36;;;;;;;8.40;3.70;;;;;;;4.45;23.51;102355.06;1684365;85;21231;-78
2022/03/20 11:12:43;;;;;;;7.33;4.30;;;;;;;4.47;24.21;102349.06;1719595;83;21207;-78
2022/03/20 11:15:53;;;;;;;9.48;4.90;;;;;;;4.51;24.07;102350.64;1718068;82;21200;-77
2022/03/20 11:19:00;;;;;;;8.33;4.53;;;;;;;4.56;23.78;102356.67;1687233;85;21248;-78
2022/03/20 11:22:12;;;;;;;6.47;3.37;;;;;;;4.54;23.92;102343.22;1687206;85;21783;-77
2022/03/20 11:25:20;;;;;;;6.03;4.08;;;;;;;4.54;24.67;102334.22;1718498;83;21238;-77
2022/03/20 11:28:28;;;;;;;8.73;4.62;;;;;;;4.64;24.23;102338.14;1719463;83;21747;-78
2022/03/20 11:31:34;;;;;;;7.20;4.00;;;;;;;4.68;24.52;102332.94;1687189;85;21549;-77
2022/03/20 11:34:40;;;;;;;10.50;4.37;;;;;;;4.75;24.00;102323.50;1685927;85;21256;-78
2022/03/20 11:37:55;;;;;;;6.85;3.95;;;;;;;4.77;24.23;102326.98;1718211;83;21208;-77
2022/03/20 11:41:23;;;;;;;4.87;3.25;;;;;;;4.71;23.97;102318.34;1686075;85;21264;-77
2022/03/20 11:44:27;;;;;;;8.55;4.30;;;;;;;4.67;24.86;102315.41;1687320;85;21208;-77
2022/03/20 11:47:35;;;;;;;11.15;3.87;;;;;;;4.71;24.11;102315.63;1719556;83;21204;-77
2022/03/20 11:50:52;;;;;;;6.87;4.08;;;;;;;4.71;24.05;102312.92;1718236;83;21766;-77
2022/03/20 11:54:12;;;;;;;7.37;4.78;;;;;;;4.66;23.95;102310.48;1719445;83;21200;-77
2022/03/20 11:57:36;;;;;;;3.75;2.60;;;;;;;4.61;24.52;102304.42;1686592;84;21245;-77
2022/03/20 12:00:44;;;;;;;5.45;3.75;;;;;;;4.63;24.06;102297.58;1686932;85;21243;-79
2022/03/20 12:04:08;;;;;;;5.37;3.27;;;;;;;4.64;24.06;102299.31;1687708;85;21330;-78
2022/03/20 12:07:50;;;;;;;7.25;3.20;;;;;;;4.63;24.53;102293.52;1687666;85;21204;-78
2022/03/20 12:11:18;;;;;;;4.67;3.08;;;;;;;4.59;24.32;102298.23;1668117;84;21211;-78
2022/03/20 12:14:46;;;;;;;5.65;3.20;;;;;;;4.53;24.32;102289.11;1687269;85;22047;-78
2022/03/20 12:18:14;;;;;;;6.25;3.33;;;;;;;4.54;24.90;102305.76;1686066;85;21201;-79
2022/03/20 12:21:21;;;;;;;8.83;3.50;;;;;;;4.59;24.61;102291.45;1686053;85;21220;-79
2022/03/20 12:24:57;;;;;;;6.92;3.15;;;;;;;4.61;24.73;102289.06;1687241;85;21196;-78
2022/03/20 12:28:00;;;;;;;4.30;2.80;;;;;;;4.67;24.58;102281.05;1687212;85;21201;-78
2022/03/20 12:31:06;;;;;;;5.10;3.40;;;;;;;4.72;24.27;102272.64;1686474;85;21195;-78
2022/03/20 12:34:26;;;;;;;6.50;3.22;;;;;;;4.69;24.89;102259.26;1687275;85;21200;-77
2022/03/20 12:37:40;;;;;;;10.05;3.45;;;;;;;4.72;24.51;102269.45;1687292;85;21204;-78
2022/03/20 12:40:47;;;;;;;4.80;2.87;;;;;;;4.69;24.43;102262.84;1718826;83;21239;-78
2022/03/20 12:44:08;;;;;;;7.42;4.92;;;;;;;4.69;24.57;102257.90;1719895;83;21243;-77
2022/03/20 12:47:13;;;;;;;10.93;6.22;;;;;;;4.68;24.73;102258.39;1687458;85;21208;-77
2022/03/20 12:50:19;;;;;;;18.52;9.23;;;;;;;4.70;24.74;102270.00;1685871;85;21731;-77
2022/03/20 12:53:29;;;;;;;8.08;5.33;;;;;;;4.68;24.61;102258.88;1685913;85;21236;-79
2022/03/20 12:56:34;;;;;;;11.43;7.22;;;;;;;4.67;24.91;102267.48;1718671;83;21765;-79
2022/03/20 12:59:41;;;;;;;15.00;6.85;;;;;;;4.73;25.11;102249.49;1722337;83;21764;-79
2022/03/20 13:03:11;;;;;;;16.52;6.97;;;;;;;4.80;25.55;102246.83;1689327;85;21239;-78
2022/03/20 13:06:18;;;;;;;15.05;5.72;;;;;;;4.82;25.12;102239.94;1690220;85;21244;-78
2022/03/20 13:09:25;;;;;;;19.52;5.85;;;;;;;4.80;25.10;102234.63;1688815;84;21747;-78
2022/03/20 13:12:32;;;;;;;9.78;5.45;;;;;;;4.79;24.97;102232.85;1688988;85;21244;-78
2022/03/20 13:15:40;;;;;;;6.55;4.22;;;;;;;4.76;24.56;102238.48;1688881;84;21759;-77
2022/03/20 13:18:46;;;;;;;9.95;4.90;;;;;;;4.73;24.78;102234.59;1690282;85;21185;-79
2022/03/20 13:21:58;;;;;;;7.78;4.22;;;;;;;4.75;24.50;102237.19;1689266;85;21236;-78
2022/03/20 13:25:03;;;;;;;6.95;3.98;;;;;;;4.74;24.42;102238.16;1690342;85;21216;-79
2022/03/20 13:28:09;;;;;;;9.03;3.20;;;;;;;4.72;24.30;102222.00;1690285;85;21200;-79
2022/03/20 13:31:22;;;;;;;4.67;2.92;;;;;;;4.72;24.42;102229.27;1689793;85;21248;-79
2022/03/20 13:34:28;;;;;;;4.42;2.55;;;;;;;4.71;24.18;102225.69;1690285;85;21264;-78
2022/03/20 13:37:35;;;;;;;6.47;3.62;;;;;;;4.74;24.05;102224.61;1690515;85;21208;-78
2022/03/20 13:40:41;;;;;;;7.65;4.08;;;;;;;4.72;24.29;102223.36;1690289;85;21752;-78
2022/03/20 13:43:48;;;;;;;7.47;3.90;;;;;;;4.69;23.90;102223.53;1690223;85;21243;-78
2022/03/20 13:46:54;;;;;;;7.20;3.72;;;;;;;4.67;23.85;102213.77;1690238;85;21212;-78
2022/03/20 13:50:03;;;;;;;16.30;8.65;;;;;;;4.66;24.03;102219.67;1689039;85;21723;-79
2022/03/20 13:53:09;;;;;;;10.08;5.95;;;;;;;4.66;23.38;102210.19;1690347;85;21197;-79
2022/03/20 13:56:30;;;;;;;8.10;4.87;;;;;;;4.64;23.45;102210.73;1690154;85;21755;-79
2022/03/20 13:59:39;;;;;;;11.50;5.17;;;;;;;4.63;23.27;102214.42;1690573;84;21318;-79
2022/03/20 14:02:49;;;;;;;10.65;5.33;;;;;;;4.63;22.53;102214.91;1688876;85;21818;-79
2022/03/20 14:06:00;;;;;;;6.10;3.60;;;;;;;4.60;22.93;102210.52;1690217;85;21196;-78
2022/03/20 14:09:07;;;;;;;8.33;4.35;;;;;;;4.57;22.65;102204.82;1690309;85;21506;-79
2022/03/20 14:12:31;;;;;;;6.70;3.95;;;;;;;4.56;22.83;102214.38;1689509;85;21230;-79
2022/03/20 14:15:39;;;;;;;8.48;4.35;;;;;;;4.55;22.31;102207.22;1690348;85;21212;-79
2022/03/20 14:19:06;;;;;;;8.50;4.20;;;;;;;4.52;22.49;102206.94;1690177;85;21216;-77
2022/03/20 14:22:08;;;;;;;7.30;4.37;;;;;;;4.50;22.27;102213.39;1689575;85;21830;-78
2022/03/20 14:25:14;;;;;;;9.48;5.78;;;;;;;4.47;22.16;102204.98;1688853;85;21216;-78
2022/03/20 14:28:26;;;;;;;16.73;4.55;;;;;;;4.45;22.34;102197.41;1689358;85;21354;-78
2022/03/20 14:41:57;;;;;;;9.90;5.03;;;;;;;4.32;22.55;102205.38;1689742;85;21311;-78
2022/03/20 14:45:04;;;;;;;11.00;5.75;;;;;;;4.30;22.49;102197.84;1688889;85;21185;-79
2022/03/20 14:48:04;;;;;;;9.40;5.15;;;;;;;4.30;22.81;102189.70;1688957;85;21208;-79
2022/03/20 14:51:03;;;;;;;8.20;5.05;;;;;;;4.28;22.99;102195.72;1690268;85;21720;-79
2022/03/20 14:54:08;;;;;;;8.30;5.40;;;;;;;4.25;23.28;102190.95;1690250;85;21743;-79
2022/03/20 14:57:15;;;;;;;14.43;5.30;;;;;;;4.21;23.51;102189.37;1688918;85;21220;-79
2022/03/20 15:00:21;;;;;;;7.67;5.22;;;;;;;4.17;23.90;102194.09;1690555;84;21206;-78
2022/03/20 15:03:29;;;;;;;12.55;5.58;;;;;;;4.09;23.95;102189.59;1698710;84;21251;-78
2022/03/20 15:06:36;;;;;;;11.40;4.72;;;;;;;4.05;24.01;102182.16;1700010;84;21184;-77
2022/03/20 15:12:51;;;;;;;13.78;5.95;;;;;;;3.98;24.37;102177.16;1699364;84;20246;-78
2022/03/20 15:15:58;;;;;;;7.50;5.28;;;;;;;3.94;24.64;102179.66;1699856;84;21180;-78